Downstream station:
SHEF ID: CHTM7 Spring River at Carthage, MO
STATION TYPE:
PRECIP STAGE RIV-FLOW
in ft cfs
Ccp-Rev Ccp-Rev Ccp-Rev
(US/Central)
04/06 00:00 0.00 4.09 581
04/06 01:00 0.00 4.09 581
04/06 02:00 0.00 4.08 574
04/06 03:00 0.00 4.08 574
04/06 04:00 0.00 4.08 574
04/06 05:00 0.00 4.07 568
04/06 06:00 0.00 4.07 568
04/06 07:00 0.00 4.06 562
04/06 08:00 0.00 4.06 562
04/06 09:00 0.00 4.06 562
04/06 10:00 0.00 4.05 556
04/06 11:00 0.00 4.06 562
04/06 12:00 0.00 4.06 562
04/06 13:00 0.00 4.04 550
04/06 14:00 0.00 4.04 550
04/06 15:00 0.00 4.04 550
04/06 16:00 0.00 4.02 538
04/06 17:00 0.00 4.04 550
04/06 18:00 0.00 4.04 550
04/06 19:00 0.00 4.03 544
04/06 20:00 0.00 4.03 544
04/06 21:00 0.00 4.02 538
04/06 22:00 0.00 4.02 538
04/06 23:00 ---- ---- ----